sensor_id;sensor_type;location;lat;lon;timestamp;pressure;altitude;pressure_sealevel;temperature;humidity
21956;BME280;11142;49.930;8.606;2024-03-23T00:53:43;99182.00;;;11.65;100.00
21956;BME280;11142;49.930;8.606;2024-03-23T00:56:10;99182.00;;;11.86;100.00
21956;BME280;11142;49.930;8.606;2024-03-23T00:58:38;99182.47;;;11.91;100.00
21956;BME280;11142;49.930;8.606;2024-03-23T01:01:04;99175.31;;;12.04;100.00
21956;BME280;11142;49.930;8.606;2024-03-23T01:03:32;99173.75;;;12.02;100.00
21956;BME280;11142;49.930;8.606;2024-03-23T01:05:59;99179.25;;;11.78;100.00
21956;BME280;11142;49.930;8.606;2024-03-23T01:08:27;99174.53;;;10.77;100.00
21956;BME280;11142;49.930;8.606;2024-03-23T01:10:58;99137.63;;;9.84;100.00
21956;BME280;11142;49.930;8.606;2024-03-23T01:13:26;99117.69;;;9.74;100.00
21956;BME280;11142;49.930;8.606;2024-03-23T01:15:53;99103.00;;;10.19;100.00
21956;BME280;11142;49.930;8.606;2024-03-23T01:18:21;99113.56;;;10.71;100.00
21956;BME280;11142;49.930;8.606;2024-03-23T01:20:48;99131.25;;;11.09;100.00
21956;BME280;11142;49.930;8.606;2024-03-23T01:23:16;99136.59;;;10.96;100.00
21956;BME280;11142;49.930;8.606;2024-03-23T01:25:42;99125.50;;;10.40;100.00
21956;BME280;11142;49.930;8.606;2024-03-23T01:28:10;99108.19;;;10.07;100.00
21956;BME280;11142;49.930;8.606;2024-03-23T01:30:36;99098.41;;;10.00;100.00
21956;BME280;11142;49.930;8.606;2024-03-23T01:33:06;99092.06;;;10.26;100.00
21956;BME280;11142;49.930;8.606;2024-03-23T01:35:32;99097.22;;;10.48;100.00
21956;BME280;11142;49.930;8.606;2024-03-23T01:37:59;99102.56;;;10.13;100.00
21956;BME280;11142;49.930;8.606;2024-03-23T01:40:25;99091.25;;;10.15;100.00
21956;BME280;11142;49.930;8.606;2024-03-23T01:42:56;99089.13;;;10.20;100.00
21956;BME280;11142;49.930;8.606;2024-03-23T01:45:24;99093.81;;;10.91;100.00
21956;BME280;11142;49.930;8.606;2024-03-23T01:47:51;99102.63;;;11.20;100.00
21956;BME280;11142;49.930;8.606;2024-03-23T01:50:19;99110.63;;;11.49;100.00
21956;BME280;11142;49.930;8.606;2024-03-23T01:52:48;99119.94;;;11.51;100.00
21956;BME280;11142;49.930;8.606;2024-03-23T01:55:14;99113.84;;;11.62;100.00
21956;BME280;11142;49.930;8.606;2024-03-23T01:57:42;99114.00;;;11.81;100.00
21956;BME280;11142;49.930;8.606;2024-03-23T02:00:10;99107.09;;;11.91;100.00
21956;BME280;11142;49.930;8.606;2024-03-23T02:02:42;99111.03;;;11.86;100.00
21956;BME280;11142;49.930;8.606;2024-03-23T02:05:12;99106.41;;;11.99;100.00
21956;BME280;11142;49.930;8.606;2024-03-23T02:07:40;99110.63;;;11.90;100.00
21956;BME280;11142;49.930;8.606;2024-03-23T02:10:08;99104.13;;;11.75;100.00
21956;BME280;11142;49.930;8.606;2024-03-23T02:12:36;99098.41;;;11.60;100.00
21956;BME280;11142;49.930;8.606;2024-03-23T02:15:03;99087.56;;;11.14;100.00
21956;BME280;11142;49.930;8.606;2024-03-23T02:17:33;99072.16;;;11.01;100.00
21956;BME280;11142;49.930;8.606;2024-03-23T02:20:00;99064.06;;;11.15;100.00
21956;BME280;11142;49.930;8.606;2024-03-23T02:22:35;99057.88;;;11.28;100.00
21956;BME280;11142;49.930;8.606;2024-03-23T02:25:04;99068.56;;;11.34;100.00
21956;BME280;11142;49.930;8.606;2024-03-23T02:27:32;99062.88;;;11.40;100.00
21956;BME280;11142;49.930;8.606;2024-03-23T02:29:59;99057.34;;;11.34;100.00
21956;BME280;11142;49.930;8.606;2024-03-23T02:32:27;99048.63;;;11.35;100.00
21956;BME280;11142;49.930;8.606;2024-03-23T02:34:53;99044.00;;;11.38;100.00
21956;BME280;11142;49.930;8.606;2024-03-23T02:37:20;99035.69;;;11.44;100.00
21956;BME280;11142;49.930;8.606;2024-03-23T02:39:46;99031.44;;;11.43;100.00
21956;BME280;11142;49.930;8.606;2024-03-23T02:42:14;99038.03;;;11.47;100.00
21956;BME280;11142;49.930;8.606;2024-03-23T02:44:44;99038.19;;;11.55;100.00
21956;BME280;11142;49.930;8.606;2024-03-23T02:47:11;99047.44;;;11.69;100.00
21956;BME280;11142;49.930;8.606;2024-03-23T02:49:37;99047.44;;;11.69;100.00
21956;BME280;11142;49.930;8.606;2024-03-23T02:52:05;99045.72;;;11.58;100.00
21956;BME280;11142;49.930;8.606;2024-03-23T02:54:31;99045.56;;;11.50;100.00
21956;BME280;11142;49.930;8.606;2024-03-23T02:56:58;99042.28;;;11.28;100.00
21956;BME280;11142;49.930;8.606;2024-03-23T02:59:25;99025.38;;;11.12;100.00
21956;BME280;11142;49.930;8.606;2024-03-23T03:01:52;99026.63;;;11.18;100.00
21956;BME280;11142;49.930;8.606;2024-03-23T03:04:18;99028.97;;;11.21;100.00
21956;BME280;11142;49.930;8.606;2024-03-23T03:06:46;99017.97;;;11.08;100.00
21956;BME280;11142;49.930;8.606;2024-03-23T03:09:13;99006.88;;;10.85;100.00
21956;BME280;11142;49.930;8.606;2024-03-23T03:11:40;99007.66;;;10.97;100.00
21956;BME280;11142;49.930;8.606;2024-03-23T03:14:05;99012.06;;;11.06;100.00
21956;BME280;11142;49.930;8.606;2024-03-23T03:16:34;99006.56;;;10.99;100.00
21956;BME280;11142;49.930;8.606;2024-03-23T03:19:01;99002.97;;;10.91;100.00
21956;BME280;11142;49.930;8.606;2024-03-23T03:21:28;98992.13;;;11.06;100.00
21956;BME280;11142;49.930;8.606;2024-03-23T03:23:54;98991.84;;;11.30;100.00
21956;BME280;11142;49.930;8.606;2024-03-23T03:26:24;98994.19;;;11.33;100.00
21956;BME280;11142;49.930;8.606;2024-03-23T03:28:50;99000.31;;;11.32;100.00
21956;BME280;11142;49.930;8.606;2024-03-23T03:31:17;98998.19;;;11.16;100.00
21956;BME280;11142;49.930;8.606;2024-03-23T03:33:45;98998.69;;;11.10;100.00
21956;BME280;11142;49.930;8.606;2024-03-23T03:36:12;99001.66;;;10.64;100.00
21956;BME280;11142;49.930;8.606;2024-03-23T03:38:38;98989.97;;;10.70;100.00
21956;BME280;11142;49.930;8.606;2024-03-23T03:41:05;98990.47;;;10.85;100.00
21956;BME280;11142;49.930;8.606;2024-03-23T03:43:32;98993.00;;;10.96;100.00
21956;BME280;11142;49.930;8.606;2024-03-23T03:46:00;99000.97;;;11.04;100.00
21956;BME280;11142;49.930;8.606;2024-03-23T03:48:27;98987.41;;;10.91;100.00
21956;BME280;11142;49.930;8.606;2024-03-23T03:50:55;98997.31;;;10.86;100.00
21956;BME280;11142;49.930;8.606;2024-03-23T03:53:21;98995.03;;;10.72;100.00
21956;BME280;11142;49.930;8.606;2024-03-23T03:55:48;98984.94;;;10.57;100.00
21956;BME280;11142;49.930;8.606;2024-03-23T03:58:15;98977.06;;;10.59;100.00
21956;BME280;11142;49.930;8.606;2024-03-23T04:00:42;98974.56;;;10.78;100.00
21956;BME280;11142;49.930;8.606;2024-03-23T04:03:09;98978.13;;;10.77;100.00
21956;BME280;11142;49.930;8.606;2024-03-23T04:05:36;98979.03;;;10.87;100.00
21956;BME280;11142;49.930;8.606;2024-03-23T04:08:05;98989.19;;;10.79;100.00
21956;BME280;11142;49.930;8.606;2024-03-23T04:10:32;98957.59;;;10.53;100.00
21956;BME280;11142;49.930;8.606;2024-03-23T04:12:59;98954.97;;;10.33;100.00
21956;BME280;11142;49.930;8.606;2024-03-23T04:15:26;98946.56;;;10.40;100.00
21956;BME280;11142;49.930;8.606;2024-03-23T04:17:53;98950.56;;;10.44;100.00
21956;BME280;11142;49.930;8.606;2024-03-23T04:20:20;98955.19;;;9.87;100.00
21956;BME280;11142;49.930;8.606;2024-03-23T04:22:47;98944.72;;;9.55;100.00
21956;BME280;11142;49.930;8.606;2024-03-23T04:25:15;98931.69;;;9.56;100.00
21956;BME280;11142;49.930;8.606;2024-03-23T04:27:46;98936.25;;;9.42;100.00
21956;BME280;11142;49.930;8.606;2024-03-23T04:30:12;98932.25;;;9.27;100.00
21956;BME280;11142;49.930;8.606;2024-03-23T04:32:41;98924.16;;;9.09;100.00
21956;BME280;11142;49.930;8.606;2024-03-23T04:35:08;98927.63;;;8.86;100.00
21956;BME280;11142;49.930;8.606;2024-03-23T04:37:36;98919.50;;;8.68;100.00
21956;BME280;11142;49.930;8.606;2024-03-23T04:40:05;98939.06;;;8.48;100.00
21956;BME280;11142;49.930;8.606;2024-03-23T04:42:34;98941.34;;;8.29;100.00
21956;BME280;11142;49.930;8.606;2024-03-23T04:45:02;98955.00;;;8.19;100.00
21956;BME280;11142;49.930;8.606;2024-03-23T04:47:29;98972.22;;;8.07;100.00
21956;BME280;11142;49.930;8.606;2024-03-23T04:49:55;98990.94;;;7.98;100.00
21956;BME280;11142;49.930;8.606;2024-03-23T04:52:22;98986.44;;;7.89;100.00
21956;BME280;11142;49.930;8.606;2024-03-23T04:54:49;98992.13;;;7.81;100.00
21956;BME280;11142;49.930;8.606;2024-03-23T04:57:17;98993.47;;;7.74;100.00
21956;BME280;11142;49.930;8.606;2024-03-23T04:59:47;98991.09;;;7.71;100.00
21956;BME280;11142;49.930;8.606;2024-03-23T05:02:15;98981.94;;;7.67;100.00
21956;BME280;11142;49.930;8.606;2024-03-23T05:04:42;98973.16;;;7.57;100.00
21956;BME280;11142;49.930;8.606;2024-03-23T05:07:09;98978.84;;;7.49;100.00
21956;BME280;11142;49.930;8.606;2024-03-23T05:09:36;98992.66;;;7.48;100.00
21956;BME280;11142;49.930;8.606;2024-03-23T05:12:03;98992.88;;;7.45;100.00
21956;BME280;11142;49.930;8.606;2024-03-23T05:14:29;99004.25;;;7.43;100.00
21956;BME280;11142;49.930;8.606;2024-03-23T05:16:59;99024.06;;;7.42;100.00
21956;BME280;11142;49.930;8.606;2024-03-23T05:19:25;99026.75;;;7.41;100.00
21956;BME280;11142;49.930;8.606;2024-03-23T05:21:54;99009.94;;;7.35;100.00
21956;BME280;11142;49.930;8.606;2024-03-23T05:24:20;99009.31;;;7.32;100.00
21956;BME280;11142;49.930;8.606;2024-03-23T05:26:47;99009.63;;;7.27;100.00
21956;BME280;11142;49.930;8.606;2024-03-23T05:29:13;99018.19;;;7.28;100.00
21956;BME280;11142;49.930;8.606;2024-03-23T05:31:42;99021.59;;;7.28;100.00
21956;BME280;11142;49.930;8.606;2024-03-23T05:34:10;99047.50;;;7.39;100.00
21956;BME280;11142;49.930;8.606;2024-03-23T05:36:37;99058.56;;;7.41;100.00
21956;BME280;11142;49.930;8.606;2024-03-23T05:39:03;99068.78;;;7.43;100.00
21956;BME280;11142;49.930;8.606;2024-03-23T05:41:30;99081.25;;;7.49;100.00
21956;BME280;11142;49.930;8.606;2024-03-23T05:43:57;99086.13;;;7.54;100.00
21956;BME280;11142;49.930;8.606;2024-03-23T05:46:26;99089.53;;;7.54;100.00
21956;BME280;11142;49.930;8.606;2024-03-23T05:48:52;99089.75;;;7.51;100.00
21956;BME280;11142;49.930;8.606;2024-03-23T05:51:27;99100.78;;;7.53;100.00
21956;BME280;11142;49.930;8.606;2024-03-23T05:53:53;99104.06;;;7.55;100.00
21956;BME280;11142;49.930;8.606;2024-03-23T05:56:20;99116.19;;;7.55;100.00
21956;BME280;11142;49.930;8.606;2024-03-23T05:58:46;99126.50;;;7.55;100.00
21956;BME280;11142;49.930;8.606;2024-03-23T06:01:14;99141.06;;;7.56;100.00
21956;BME280;11142;49.930;8.606;2024-03-23T06:03:40;99143.63;;;7.56;100.00
21956;BME280;11142;49.930;8.606;2024-03-23T06:06:09;99159.13;;;7.56;100.00
21956;BME280;11142;49.930;8.606;2024-03-23T06:08:38;99162.66;;;7.55;100.00
21956;BME280;11142;49.930;8.606;2024-03-23T06:11:05;99169.75;;;7.51;100.00
21956;BME280;11142;49.930;8.606;2024-03-23T06:13:32;99187.19;;;7.47;100.00
21956;BME280;11142;49.930;8.606;2024-03-23T06:15:59;99204.31;;;7.48;100.00
21956;BME280;11142;49.930;8.606;2024-03-23T06:18:25;99213.00;;;7.47;100.00
21956;BME280;11142;49.930;8.606;2024-03-23T06:20:53;99222.50;;;7.47;100.00
21956;BME280;11142;49.930;8.606;2024-03-23T06:23:19;99233.75;;;7.46;100.00
21956;BME280;11142;49.930;8.606;2024-03-23T06:25:48;99238.72;;;7.49;100.00
21956;BME280;11142;49.930;8.606;2024-03-23T06:28:15;99243.16;;;7.47;100.00
21956;BME280;11142;49.930;8.606;2024-03-23T06:30:42;99257.91;;;7.45;100.00
21956;BME280;11142;49.930;8.606;2024-03-23T06:33:08;99266.66;;;7.42;100.00
21956;BME280;11142;49.930;8.606;2024-03-23T06:35:35;99274.13;;;7.47;100.00
21956;BME280;11142;49.930;8.606;2024-03-23T06:38:01;99294.13;;;7.43;100.00
21956;BME280;11142;49.930;8.606;2024-03-23T06:40:28;99307.44;;;7.37;100.00
21956;BME280;11142;49.930;8.606;2024-03-23T06:42:56;99305.28;;;7.44;100.00
21956;BME280;11142;49.930;8.606;2024-03-23T06:45:26;99294.13;;;7.43;100.00
21956;BME280;11142;49.930;8.606;2024-03-23T06:47:53;99314.34;;;7.37;100.00
21956;BME280;11142;49.930;8.606;2024-03-23T06:50:22;99333.31;;;7.36;100.00
21956;BME280;11142;49.930;8.606;2024-03-23T06:52:52;99324.22;;;7.30;100.00
21956;BME280;11142;49.930;8.606;2024-03-23T06:55:18;99348.00;;;7.21;100.00
21956;BME280;11142;49.930;8.606;2024-03-23T06:57:45;99341.75;;;7.11;100.00
21956;BME280;11142;49.930;8.606;2024-03-23T07:00:14;99358.97;;;7.11;100.00
21956;BME280;11142;49.930;8.606;2024-03-23T07:02:41;99365.53;;;7.02;100.00
21956;BME280;11142;49.930;8.606;2024-03-23T07:05:07;99373.09;;;6.91;100.00
21956;BME280;11142;49.930;8.606;2024-03-23T07:07:35;99376.97;;;6.84;100.00
21956;BME280;11142;49.930;8.606;2024-03-23T07:10:01;99367.84;;;6.78;100.00
21956;BME280;11142;49.930;8.606;2024-03-23T07:12:28;99391.03;;;6.92;100.00
21956;BME280;11142;49.930;8.606;2024-03-23T07:14:54;99385.81;;;7.22;100.00
21956;BME280;11142;49.930;8.606;2024-03-23T07:17:23;99404.31;;;7.29;100.00
21956;BME280;11142;49.930;8.606;2024-03-23T07:19:49;99424.31;;;7.25;100.00
21956;BME280;11142;49.930;8.606;2024-03-23T07:22:18;99431.84;;;7.14;100.00
21956;BME280;11142;49.930;8.606;2024-03-23T07:24:44;99442.47;;;7.24;100.00
21956;BME280;11142;49.930;8.606;2024-03-23T07:27:11;99470.28;;;7.19;100.00
21956;BME280;11142;49.930;8.606;2024-03-23T07:29:37;99473.25;;;7.13;100.00
21956;BME280;11142;49.930;8.606;2024-03-23T07:32:05;99474.69;;;7.17;100.00
21956;BME280;11142;49.930;8.606;2024-03-23T07:34:32;99494.44;;;7.18;100.00
21956;BME280;11142;49.930;8.606;2024-03-23T07:36:59;99510.28;;;7.12;100.00
21956;BME280;11142;49.930;8.606;2024-03-23T07:39:26;99508.53;;;7.12;100.00
21956;BME280;11142;49.930;8.606;2024-03-23T07:41:54;99512.88;;;7.26;100.00
21956;BME280;11142;49.930;8.606;2024-03-23T07:44:20;99512.41;;;7.19;100.00
21956;BME280;11142;49.930;8.606;2024-03-23T07:46:48;99521.38;;;7.56;100.00
21956;BME280;11142;49.930;8.606;2024-03-23T07:49:14;99517.56;;;7.90;100.00
21956;BME280;11142;49.930;8.606;2024-03-23T07:51:42;99525.50;;;7.87;100.00
21956;BME280;11142;49.930;8.606;2024-03-23T07:54:10;99525.44;;;7.60;100.00
21956;BME280;11142;49.930;8.606;2024-03-23T07:56:37;99526.97;;;7.91;100.00
21956;BME280;11142;49.930;8.606;2024-03-23T07:59:03;99543.97;;;8.22;100.00
21956;BME280;11142;49.930;8.606;2024-03-23T08:01:30;99547.00;;;8.01;100.00
21956;BME280;11142;49.930;8.606;2024-03-23T08:03:56;99554.91;;;8.53;100.00
21956;BME280;11142;49.930;8.606;2024-03-23T08:06:23;99556.25;;;8.46;100.00
21956;BME280;11142;49.930;8.606;2024-03-23T08:08:52;99564.56;;;8.37;100.00
21956;BME280;11142;49.930;8.606;2024-03-23T08:11:25;99577.97;;;8.30;100.00
21956;BME280;11142;49.930;8.606;2024-03-23T08:13:52;99577.69;;;8.34;100.00
21956;BME280;11142;49.930;8.606;2024-03-23T08:16:19;99587.47;;;8.15;100.00
21956;BME280;11142;49.930;8.606;2024-03-23T08:18:46;99589.88;;;8.32;100.00
21956;BME280;11142;49.930;8.606;2024-03-23T08:21:13;99587.47;;;8.43;100.00
21956;BME280;11142;49.930;8.606;2024-03-23T08:23:46;99582.91;;;8.88;100.00
21956;BME280;11142;49.930;8.606;2024-03-23T08:26:15;99597.97;;;8.54;100.00
21956;BME280;11142;49.930;8.606;2024-03-23T08:28:43;99602.75;;;9.27;100.00
21956;BME280;11142;49.930;8.606;2024-03-23T08:31:10;99613.03;;;10.04;100.00
21956;BME280;11142;49.930;8.606;2024-03-23T08:33:38;99608.09;;;10.13;100.00
21956;BME280;11142;49.930;8.606;2024-03-23T08:36:06;99607.91;;;10.40;100.00
21956;BME280;11142;49.930;8.606;2024-03-23T08:38:34;99611.81;;;9.84;100.00
21956;BME280;11142;49.930;8.606;2024-03-23T08:41:01;99607.03;;;10.03;100.00
21956;BME280;11142;49.930;8.606;2024-03-23T08:43:32;99612.81;;;9.31;100.00
21956;BME280;11142;49.930;8.606;2024-03-23T08:46:03;99608.09;;;8.72;100.00
21956;BME280;11142;49.930;8.606;2024-03-23T08:48:31;99596.63;;;8.88;100.00
21956;BME280;11142;49.930;8.606;2024-03-23T08:51:01;99607.03;;;10.03;100.00
21956;BME280;11142;49.930;8.606;2024-03-23T08:53:28;99602.88;;;9.50;100.00
21956;BME280;11142;49.930;8.606;2024-03-23T08:55:55;99604.41;;;9.28;100.00
21956;BME280;11142;49.930;8.606;2024-03-23T08:58:23;99598.81;;;9.21;100.00
21956;BME280;11142;49.930;8.606;2024-03-23T09:00:52;99608.38;;;8.53;100.00
21956;BME280;11142;49.930;8.606;2024-03-23T09:03:22;99610.81;;;9.22;100.00
21956;BME280;11142;49.930;8.606;2024-03-23T09:05:48;99602.78;;;9.52;100.00
21956;BME280;11142;49.930;8.606;2024-03-23T09:08:17;99602.66;;;9.41;100.00
21956;BME280;11142;49.930;8.606;2024-03-23T09:10:44;99609.88;;;9.23;100.00
21956;BME280;11142;49.930;8.606;2024-03-23T09:13:13;99626.66;;;9.18;100.00
21956;BME280;11142;49.930;8.606;2024-03-23T09:15:46;99634.59;;;10.04;100.00
21956;BME280;11142;49.930;8.606;2024-03-23T09:18:18;99633.34;;;10.35;100.00
21956;BME280;11142;49.930;8.606;2024-03-23T09:20:45;99638.25;;;10.63;100.00
21956;BME280;11142;49.930;8.606;2024-03-23T09:23:12;99633.91;;;11.35;99.82
21956;BME280;11142;49.930;8.606;2024-03-23T09:25:39;99638.44;;;10.73;100.00
21956;BME280;11142;49.930;8.606;2024-03-23T09:28:08;99637.50;;;11.22;98.62
21956;BME280;11142;49.930;8.606;2024-03-23T09:30:35;99642.53;;;12.15;94.79
21956;BME280;11142;49.930;8.606;2024-03-23T09:33:07;99635.81;;;11.79;92.47
21956;BME280;11142;49.930;8.606;2024-03-23T09:35:37;99637.97;;;11.27;94.41
21956;BME280;11142;49.930;8.606;2024-03-23T09:38:05;99632.31;;;11.67;94.91
21956;BME280;11142;49.930;8.606;2024-03-23T09:40:33;99627.50;;;12.63;90.28
21956;BME280;11142;49.930;8.606;2024-03-23T09:43:00;99635.13;;;13.29;86.25
21956;BME280;11142;49.930;8.606;2024-03-23T09:45:27;99636.44;;;13.24;85.68
21956;BME280;11142;49.930;8.606;2024-03-23T09:47:55;99633.63;;;13.68;84.12
21956;BME280;11142;49.930;8.606;2024-03-23T09:50:22;99635.31;;;14.30;78.03
21956;BME280;11142;49.930;8.606;2024-03-23T09:52:51;99636.28;;;14.88;70.88
21956;BME280;11142;49.930;8.606;2024-03-23T09:55:18;99639.50;;;13.29;75.29
21956;BME280;11142;49.930;8.606;2024-03-23T09:57:45;99655.44;;;12.16;75.51
21956;BME280;11142;49.930;8.606;2024-03-23T10:00:13;99648.13;;;11.30;79.25
21956;BME280;11142;49.930;8.606;2024-03-23T10:02:40;99642.78;;;11.55;75.78
21956;BME280;11142;49.930;8.606;2024-03-23T10:05:19;99644.53;;;12.67;75.83
21956;BME280;11142;49.930;8.606;2024-03-23T10:07:47;99632.97;;;12.92;78.30
21956;BME280;11142;49.930;8.606;2024-03-23T10:10:15;99636.56;;;12.79;75.28
21956;BME280;11142;49.930;8.606;2024-03-23T10:12:47;99630.88;;;12.86;75.03
21956;BME280;11142;49.930;8.606;2024-03-23T10:15:21;99626.38;;;13.19;74.91
21956;BME280;11142;49.930;8.606;2024-03-23T10:17:48;99625.72;;;12.74;71.33
21956;BME280;11142;49.930;8.606;2024-03-23T10:20:19;99631.81;;;12.19;73.00
21956;BME280;11142;49.930;8.606;2024-03-23T10:22:53;99619.38;;;12.45;80.41
21956;BME280;11142;49.930;8.606;2024-03-23T10:25:23;99613.16;;;12.68;77.79
21956;BME280;11142;49.930;8.606;2024-03-23T10:27:58;99609.31;;;12.52;80.40
21956;BME280;11142;49.930;8.606;2024-03-23T10:30:25;99610.53;;;11.46;84.80
21956;BME280;11142;49.930;8.606;2024-03-23T10:33:06;99615.41;;;10.69;90.59
21956;BME280;11142;49.930;8.606;2024-03-23T10:35:33;99607.63;;;10.32;89.98
21956;BME280;11142;49.930;8.606;2024-03-23T10:38:00;99614.31;;;9.86;90.77
21956;BME280;11142;49.930;8.606;2024-03-23T10:40:28;99610.75;;;9.74;91.41
21956;BME280;11142;49.930;8.606;2024-03-23T10:42:57;99614.31;;;9.60;91.45
21956;BME280;11142;49.930;8.606;2024-03-23T10:45:24;99621.31;;;9.96;92.41
21956;BME280;11142;49.930;8.606;2024-03-23T10:47:51;99616.91;;;9.86;87.34
21956;BME280;11142;49.930;8.606;2024-03-23T10:50:17;99627.50;;;9.31;88.36
21956;BME280;11142;49.930;8.606;2024-03-23T10:52:47;99664.53;;;7.94;94.63
21956;BME280;11142;49.930;8.606;2024-03-23T10:55:17;99677.94;;;7.27;97.90
21956;BME280;11142;49.930;8.606;2024-03-23T10:57:49;99675.09;;;7.32;98.06
21956;BME280;11142;49.930;8.606;2024-03-23T11:00:17;99663.34;;;7.26;98.75
21956;BME280;11142;49.930;8.606;2024-03-23T11:02:45;99693.84;;;7.04;100.00
21956;BME280;11142;49.930;8.606;2024-03-23T11:05:28;99695.59;;;6.72;100.00
21956;BME280;11142;49.930;8.606;2024-03-23T11:07:57;99700.88;;;6.22;100.00
21956;BME280;11142;49.930;8.606;2024-03-23T11:10:30;99692.56;;;6.00;100.00
21956;BME280;11142;49.930;8.606;2024-03-23T11:13:23;99684.34;;;5.76;100.00
21956;BME280;11142;49.930;8.606;2024-03-23T11:15:49;99679.44;;;5.55;100.00
21956;BME280;11142;49.930;8.606;2024-03-23T11:18:20;99664.66;;;5.41;100.00
21956;BME280;11142;49.930;8.606;2024-03-23T11:20:47;99660.25;;;5.43;100.00
21956;BME280;11142;49.930;8.606;2024-03-23T11:23:27;99651.28;;;5.52;100.00
21956;BME280;11142;49.930;8.606;2024-03-23T11:25:54;99646.94;;;5.52;100.00
21956;BME280;11142;49.930;8.606;2024-03-23T11:28:22;99634.81;;;5.71;100.00
21956;BME280;11142;49.930;8.606;2024-03-23T11:30:48;99622.31;;;5.98;100.00
21956;BME280;11142;49.930;8.606;2024-03-23T11:33:15;99614.84;;;6.25;100.00
21956;BME280;11142;49.930;8.606;2024-03-23T11:35:42;99608.91;;;6.24;100.00
21956;BME280;11142;49.930;8.606;2024-03-23T11:38:10;99600.22;;;6.57;100.00
21956;BME280;11142;49.930;8.606;2024-03-23T11:40:38;99583.94;;;6.72;100.00
21956;BME280;11142;49.930;8.606;2024-03-23T11:43:08;99596.19;;;6.21;100.00
21956;BME280;11142;49.930;8.606;2024-03-23T11:45:37;99584.09;;;6.22;100.00
21956;BME280;11142;49.930;8.606;2024-03-23T11:48:07;99574.13;;;6.63;100.00
21956;BME280;11142;49.930;8.606;2024-03-23T11:50:35;99585.97;;;6.97;100.00
21956;BME280;11142;49.930;8.606;2024-03-23T11:53:14;99614.56;;;11.61;100.00
21956;BME280;11142;49.930;8.606;2024-03-23T11:55:48;99625.09;;;14.48;98.88
21956;BME280;11142;49.930;8.606;2024-03-23T11:58:16;99623.41;;;15.25;76.41
21956;BME280;11142;49.930;8.606;2024-03-23T12:00:55;99621.75;;;19.53;63.92
21956;BME280;11142;49.930;8.606;2024-03-23T12:03:24;99614.78;;;21.84;55.25
21956;BME280;11142;49.930;8.606;2024-03-23T12:05:52;99622.50;;;24.41;50.13
21956;BME280;11142;49.930;8.606;2024-03-23T12:08:21;99615.72;;;26.37;42.38
21956;BME280;11142;49.930;8.606;2024-03-23T12:10:49;99613.72;;;24.95;42.50
21956;BME280;11142;49.930;8.606;2024-03-23T12:13:18;99612.75;;;25.22;43.62
21956;BME280;11142;49.930;8.606;2024-03-23T12:15:45;99601.84;;;26.73;38.99
21956;BME280;11142;49.930;8.606;2024-03-23T12:18:13;99598.19;;;26.61;38.15
21956;BME280;11142;49.930;8.606;2024-03-23T12:20:40;99598.50;;;26.39;39.18
21956;BME280;11142;49.930;8.606;2024-03-23T12:23:11;99589.41;;;28.52;35.21
21956;BME280;11142;49.930;8.606;2024-03-23T12:25:40;99586.50;;;23.91;38.20
21956;BME280;11142;49.930;8.606;2024-03-23T12:28:09;99575.78;;;21.86;43.37
21956;BME280;11142;49.930;8.606;2024-03-23T12:30:35;99578.13;;;24.76;36.99
21956;BME280;11142;49.930;8.606;2024-03-23T12:33:03;99576.97;;;25.31;35.90
21956;BME280;11142;49.930;8.606;2024-03-23T12:35:31;99561.03;;;22.71;36.97
21956;BME280;11142;49.930;8.606;2024-03-23T12:37:59;99565.81;;;21.96;42.03
21956;BME280;11142;49.930;8.606;2024-03-23T12:40:25;99564.84;;;17.70;45.14
21956;BME280;11142;49.930;8.606;2024-03-23T12:42:53;99550.72;;;15.38;51.38
21956;BME280;11142;49.930;8.606;2024-03-23T12:45:19;99545.00;;;14.18;56.19
21956;BME280;11142;49.930;8.606;2024-03-23T12:47:46;99543.91;;;14.11;58.65
21956;BME280;11142;49.930;8.606;2024-03-23T12:50:15;99543.38;;;14.17;64.41
21956;BME280;11142;49.930;8.606;2024-03-23T12:52:43;99541.31;;;13.50;60.44
21956;BME280;11142;49.930;8.606;2024-03-23T12:55:09;99549.53;;;12.61;62.57
21956;BME280;11142;49.930;8.606;2024-03-23T12:57:37;99543.69;;;13.01;72.04
21956;BME280;11142;49.930;8.606;2024-03-23T13:00:04;99543.78;;;12.78;72.21
21956;BME280;11142;49.930;8.606;2024-03-23T13:02:32;99537.41;;;12.40;75.85
21956;BME280;11142;49.930;8.606;2024-03-23T13:05:01;99537.13;;;11.89;78.41
21956;BME280;11142;49.930;8.606;2024-03-23T13:07:28;99541.09;;;11.59;81.81
21956;BME280;11142;49.930;8.606;2024-03-23T13:09:56;99554.94;;;11.03;85.07
21956;BME280;11142;49.930;8.606;2024-03-23T13:12:23;99571.22;;;10.57;89.36
21956;BME280;11142;49.930;8.606;2024-03-23T13:14:49;99609.75;;;9.89;96.73
21956;BME280;11142;49.930;8.606;2024-03-23T13:17:17;99601.88;;;7.63;100.00
21956;BME280;11142;49.930;8.606;2024-03-23T13:19:43;99592.56;;;5.75;100.00
21956;BME280;11142;49.930;8.606;2024-03-23T13:22:10;99550.13;;;5.17;100.00
21956;BME280;11142;49.930;8.606;2024-03-23T13:24:38;99514.03;;;5.01;100.00
21956;BME280;11142;49.930;8.606;2024-03-23T13:27:07;99482.44;;;5.16;100.00
21956;BME280;11142;49.930;8.606;2024-03-23T13:29:34;99474.00;;;5.30;100.00
21956;BME280;11142;49.930;8.606;2024-03-23T13:32:04;99460.59;;;6.34;100.00
21956;BME280;11142;49.930;8.606;2024-03-23T13:34:33;99451.50;;;7.31;100.00
21956;BME280;11142;49.930;8.606;2024-03-23T13:37:02;99467.34;;;8.08;100.00
21956;BME280;11142;49.930;8.606;2024-03-23T13:39:30;99503.84;;;7.61;100.00
21956;BME280;11142;49.930;8.606;2024-03-23T13:41:57;99518.22;;;10.73;100.00
21956;BME280;11142;49.930;8.606;2024-03-23T13:44:25;99610.25;;;13.88;100.00
21956;BME280;11142;49.930;8.606;2024-03-23T13:46:52;99609.31;;;13.26;100.00
21956;BME280;11142;49.930;8.606;2024-03-23T13:49:25;99610.97;;;14.79;100.00
21956;BME280;11142;49.930;8.606;2024-03-23T13:51:53;99623.16;;;17.20;94.08
21956;BME280;11142;49.930;8.606;2024-03-23T13:54:20;99624.69;;;13.92;99.93